Time;durP1;ratioP1;P1;durP2;ratioP2;P2;SDS_P1;SDS_P2;PMS_P1;PMS_P2;Temp;Humidity;BMP_temperature;BMP_pressure;BME280_temperature;BME280_humidity;BME280_pressure;Samples;Min_cycle;Max_cycle;Signal;HPM_P1;HPM_P2
2022/09/14 00:01:30;;;;;;;5.07;0.90;;;;;;;28.81;34.63;100991.31;5030905;28;20108;-73
2022/09/14 00:04:04;;;;;;;4.07;0.90;;;;;;;28.83;34.33;100991.19;5029489;28;20511;-72
2022/09/14 00:06:30;;;;;;;7.80;0.90;;;;;;;28.83;34.53;100994.72;5011441;28;20393;-73
2022/09/14 00:08:57;;;;;;;7.55;1.05;;;;;;;28.71;34.34;100987.69;5035125;28;20022;-72
2022/09/14 00:11:25;;;;;;;5.97;0.80;;;;;;;28.58;34.67;100980.63;5010522;28;20022;-72
2022/09/14 00:13:51;;;;;;;5.78;1.00;;;;;;;28.73;34.21;100974.97;5010804;28;20477;-73
2022/09/14 00:16:23;;;;;;;5.90;0.90;;;;;;;27.85;35.55;100972.28;5043440;28;20034;-72
2022/09/14 00:18:54;;;;;;;6.93;1.10;;;;;;;28.94;33.38;100962.34;5029899;28;20072;-73
2022/09/14 00:21:21;;;;;;;4.40;0.75;;;;;;;28.39;34.54;100959.81;5029361;28;20128;-72
2022/09/14 00:23:47;;;;;;;8.27;1.00;;;;;;;28.83;33.78;100951.69;5030667;28;20238;-72
2022/09/14 00:26:16;;;;;;;7.75;0.98;;;;;;;28.53;34.23;100955.94;5028195;28;20497;-72
2022/09/14 00:28:45;;;;;;;5.10;1.00;;;;;;;28.24;34.50;100947.66;5028205;28;20029;-72
2022/09/14 00:31:12;;;;;;;5.25;1.17;;;;;;;27.54;35.59;100947.88;5041230;28;20065;-72
2022/09/14 00:33:38;;;;;;;8.10;1.15;;;;;;;28.45;34.57;100953.06;5043355;28;20032;-72
2022/09/14 00:36:11;;;;;;;3.55;0.80;;;;;;;28.40;34.63;100949.94;5021270;28;20029;-72
2022/09/14 00:38:38;;;;;;;5.47;1.00;;;;;;;27.91;35.27;100947.59;5022467;28;20092;-72
2022/09/14 00:41:05;;;;;;;6.97;1.58;;;;;;;28.61;33.90;100945.41;5011413;28;20136;-73
2022/09/14 00:43:31;;;;;;;5.07;0.90;;;;;;;28.51;34.26;100951.69;5009576;28;20115;-73
2022/09/14 00:45:59;;;;;;;8.45;1.35;;;;;;;28.32;34.31;100947.03;5022724;28;20454;-72
2022/09/14 00:48:26;;;;;;;1.83;0.77;;;;;;;28.48;34.79;100947.44;5029208;28;20432;-72
2022/09/14 00:50:52;;;;;;;4.60;0.95;;;;;;;28.63;34.11;100936.34;5028990;28;20111;-72
2022/09/14 00:53:18;;;;;;;6.55;0.82;;;;;;;28.28;34.79;100941.03;5018921;28;20141;-72
2022/09/14 00:55:44;;;;;;;9.73;1.02;;;;;;;28.35;34.85;100933.31;5011465;28;20372;-72
2022/09/14 00:58:09;;;;;;;4.57;1.15;;;;;;;28.61;33.90;100926.59;5011376;28;20559;-72
2022/09/14 01:00:35;;;;;;;3.50;0.60;;;;;;;28.66;33.75;100917.31;5028026;28;20037;-72
2022/09/14 01:03:01;;;;;;;7.35;0.98;;;;;;;27.17;36.15;100918.59;5024239;28;20025;-72
2022/09/14 01:05:41;;;;;;;5.57;1.17;;;;;;;27.55;34.86;100917.38;5011278;28;20386;-72
2022/09/14 01:08:32;;;;;;;4.18;1.00;;;;;;;27.60;36.16;100908.94;5013448;28;20025;-72
2022/09/14 01:11:25;;;;;;;3.35;0.93;;;;;;;28.18;35.75;100903.34;5058255;28;20041;-73
2022/09/14 01:14:10;;;;;;;3.58;0.80;;;;;;;27.93;36.68;100900.00;5032144;28;20026;-73
2022/09/14 01:17:17;;;;;;;5.97;1.00;;;;;;;28.16;35.75;100894.56;5034594;28;20458;-72
2022/09/14 01:19:55;;;;;;;4.05;0.85;;;;;;;28.03;36.32;100896.56;5025786;28;20872;-73
2022/09/14 01:22:38;;;;;;;6.00;1.70;;;;;;;28.25;35.77;100896.47;5029375;28;20033;-72
2022/09/14 01:25:37;;;;;;;5.60;1.05;;;;;;;27.59;37.08;100897.38;5032319;28;20037;-72
2022/09/14 01:28:11;;;;;;;6.80;1.38;;;;;;;28.05;36.14;100887.38;5022222;28;20042;-72
2022/09/14 01:30:41;;;;;;;5.72;1.00;;;;;;;28.43;35.71;100890.53;5022313;28;20117;-73
2022/09/14 01:33:31;;;;;;;4.93;1.10;;;;;;;27.94;36.52;100892.78;5031804;28;20018;-72
2022/09/14 01:36:00;;;;;;;4.63;0.80;;;;;;;27.93;36.54;100888.38;5031476;28;20075;-72
2022/09/14 01:38:30;;;;;;;7.82;1.15;;;;;;;28.30;36.08;100881.78;5032173;28;20796;-73
2022/09/14 01:40:59;;;;;;;4.28;0.80;;;;;;;28.30;36.07;100873.72;5031143;28;20045;-72
2022/09/14 01:43:31;;;;;;;4.80;0.80;;;;;;;28.36;36.18;100875.91;5030971;28;20049;-72
2022/09/14 01:46:03;;;;;;;4.07;1.48;;;;;;;28.87;34.80;100875.13;5032014;28;20022;-73
2022/09/14 01:48:38;;;;;;;4.15;1.00;;;;;;;28.88;35.18;100879.53;5032676;28;20029;-72
2022/09/14 01:51:11;;;;;;;3.63;0.90;;;;;;;28.33;35.33;100873.47;5013605;28;20056;-72
2022/09/14 01:53:48;;;;;;;10.25;1.17;;;;;;;28.76;35.13;100875.22;5028163;28;20083;-72
2022/09/14 01:56:50;;;;;;;3.30;0.98;;;;;;;28.67;35.19;100870.63;5031767;28;20377;-72
2022/09/14 01:59:23;;;;;;;6.35;1.42;;;;;;;28.51;34.62;100871.91;5050778;28;20049;-72
2022/09/14 02:01:55;;;;;;;5.45;0.77;;;;;;;29.05;34.26;100863.75;5031371;28;20037;-72
2022/09/14 02:04:47;;;;;;;6.37;1.00;;;;;;;28.85;34.11;100873.53;5032423;28;20033;-73
2022/09/14 02:07:13;;;;;;;4.03;0.90;;;;;;;28.51;33.68;100871.91;5020722;28;20091;-72
2022/09/14 02:09:39;;;;;;;10.00;1.05;;;;;;;28.55;34.06;100865.28;5013604;28;20041;-73
2022/09/14 02:12:04;;;;;;;4.63;1.13;;;;;;;28.87;33.79;100858.97;5012242;28;20025;-73
2022/09/14 02:14:30;;;;;;;3.30;0.90;;;;;;;28.99;33.28;100867.81;5022654;28;20104;-72
2022/09/14 02:16:56;;;;;;;7.20;1.17;;;;;;;28.77;33.33;100861.63;5013111;28;20030;-72
2022/09/14 02:19:24;;;;;;;5.80;1.05;;;;;;;26.98;37.21;100872.75;5032393;28;20105;-73
2022/09/14 02:21:49;;;;;;;6.25;1.05;;;;;;;28.24;34.85;100865.19;5031176;28;20030;-72
2022/09/14 02:24:15;;;;;;;4.85;0.88;;;;;;;28.19;34.77;100861.19;5032039;28;20444;-72
2022/09/14 02:26:41;;;;;;;5.38;1.30;;;;;;;27.74;35.18;100862.22;5029599;28;20378;-73
2022/09/14 02:29:07;;;;;;;8.43;0.90;;;;;;;27.55;35.65;100852.97;5030698;28;20034;-72
2022/09/14 02:32:00;;;;;;;6.72;0.95;;;;;;;27.94;34.53;100857.84;5030944;28;20029;-72
2022/09/14 02:34:33;;;;;;;5.68;1.10;;;;;;;28.20;34.24;100853.00;5037622;28;20044;-72
2022/09/14 02:37:11;;;;;;;4.95;0.90;;;;;;;28.46;33.52;100852.63;5046170;28;20037;-72
2022/09/14 02:39:42;;;;;;;4.68;1.08;;;;;;;28.29;34.20;100851.41;5029783;28;20037;-73
2022/09/14 02:42:24;;;;;;;5.35;0.80;;;;;;;28.37;34.35;100848.03;5030547;28;20061;-73
2022/09/14 02:45:02;;;;;;;4.35;0.80;;;;;;;28.37;34.17;100842.66;5022464;28;20034;-72
2022/09/14 02:48:01;;;;;;;5.93;0.95;;;;;;;28.35;34.42;100828.50;5030437;28;20112;-72
2022/09/14 02:50:29;;;;;;;7.57;1.10;;;;;;;27.75;35.09;100815.56;5031749;28;20034;-72
2022/09/14 02:52:54;;;;;;;4.00;0.93;;;;;;;27.73;35.34;100814.84;5030580;28;20124;-72
2022/09/14 02:55:24;;;;;;;6.82;1.50;;;;;;;27.98;34.68;100810.97;5020669;28;20116;-73
2022/09/14 02:58:22;;;;;;;5.18;1.20;;;;;;;27.87;34.79;100809.16;5023920;28;20029;-72
2022/09/14 03:00:49;;;;;;;2.50;0.90;;;;;;;27.81;35.04;100804.34;5032352;28;20471;-72
2022/09/14 03:03:17;;;;;;;4.60;1.00;;;;;;;28.05;35.24;100803.28;5028027;28;20029;-72
2022/09/14 03:05:43;;;;;;;4.05;0.90;;;;;;;28.64;34.15;100796.44;5030100;28;20402;-72
2022/09/14 03:08:10;;;;;;;16.52;1.42;;;;;;;28.56;34.20;100799.78;5027436;28;20088;-72
2022/09/14 03:10:36;;;;;;;4.95;1.00;;;;;;;28.53;33.93;100794.66;5024229;28;20026;-72
2022/09/14 03:13:02;;;;;;;10.80;1.42;;;;;;;28.71;33.75;100802.16;5030901;28;20223;-72
2022/09/14 03:15:28;;;;;;;4.07;1.00;;;;;;;28.18;35.07;100806.63;5031462;28;20109;-72
2022/09/14 03:17:54;;;;;;;7.32;1.05;;;;;;;28.24;34.89;100806.09;5021811;28;20029;-72
2022/09/14 03:20:25;;;;;;;5.80;1.10;;;;;;;28.25;34.44;100802.44;5023244;28;20025;-72
2022/09/14 03:22:51;;;;;;;6.60;1.00;;;;;;;28.66;34.27;100804.38;5019216;28;20062;-72
2022/09/14 03:25:18;;;;;;;5.97;0.80;;;;;;;28.27;34.23;100788.84;5043343;28;20053;-72
2022/09/14 03:27:50;;;;;;;3.15;1.00;;;;;;;28.40;34.79;100788.66;5018745;28;20053;-72
2022/09/14 03:30:16;;;;;;;3.25;1.23;;;;;;;28.46;34.25;100788.13;5022865;28;20429;-72
2022/09/14 03:32:42;;;;;;;7.57;1.25;;;;;;;28.55;34.44;100787.34;5030101;28;20075;-72
2022/09/14 03:35:07;;;;;;;7.75;1.02;;;;;;;28.43;35.00;100783.03;5032103;28;20030;-73
2022/09/14 03:37:37;;;;;;;3.35;0.90;;;;;;;27.88;35.30;100781.34;5022013;28;20025;-73
2022/09/14 03:40:03;;;;;;;3.10;0.75;;;;;;;28.15;35.26;100785.41;5010920;28;20029;-73
2022/09/14 03:42:29;;;;;;;9.65;1.30;;;;;;;28.08;35.43;100790.44;5010459;28;20556;-73
2022/09/14 03:44:54;;;;;;;4.95;0.90;;;;;;;27.43;36.26;100779.66;5026807;28;20056;-73
2022/09/14 03:47:19;;;;;;;10.43;1.63;;;;;;;28.03;35.79;100783.75;5027099;28;20285;-73
2022/09/14 03:49:45;;;;;;;4.50;1.00;;;;;;;28.07;35.41;100782.53;5027199;28;20026;-73
2022/09/14 03:52:10;;;;;;;3.53;0.93;;;;;;;27.72;36.27;100773.72;5055112;28;20474;-73
2022/09/14 03:54:35;;;;;;;6.55;1.15;;;;;;;28.15;35.06;100769.28;5031751;28;20029;-73
2022/09/14 03:57:01;;;;;;;3.20;0.90;;;;;;;26.97;37.28;100763.75;5030511;28;20018;-73
2022/09/14 03:59:26;;;;;;;6.20;1.02;;;;;;;26.96;37.17;100764.75;5012121;28;20141;-72
2022/09/14 04:01:52;;;;;;;4.38;0.90;;;;;;;27.69;35.94;100759.72;5030804;28;20026;-72
2022/09/14 04:04:17;;;;;;;9.43;1.73;;;;;;;27.06;37.28;100765.72;5030271;28;20044;-72
2022/09/14 04:06:43;;;;;;;4.10;1.20;;;;;;;27.45;36.47;100765.28;5027637;28;20555;-72
2022/09/14 04:09:08;;;;;;;5.65;1.20;;;;;;;27.76;35.93;100769.78;5010848;28;20393;-72
2022/09/14 04:11:33;;;;;;;9.23;1.20;;;;;;;26.89;37.87;100770.59;5025028;28;20033;-72
2022/09/14 04:14:03;;;;;;;4.45;1.40;;;;;;;27.56;36.67;100774.16;5009597;28;20462;-72
2022/09/14 04:16:29;;;;;;;5.75;1.20;;;;;;;27.58;36.99;100777.56;5010687;28;20069;-72
2022/09/14 04:18:55;;;;;;;3.80;1.00;;;;;;;27.83;36.39;100786.25;5011724;28;20087;-72
2022/09/14 04:21:22;;;;;;;4.43;0.90;;;;;;;27.30;36.21;100783.47;5012279;28;20017;-72
2022/09/14 04:23:51;;;;;;;3.92;1.00;;;;;;;27.26;36.45;100788.25;5029734;28;20071;-72
2022/09/14 04:26:18;;;;;;;5.75;1.20;;;;;;;27.91;36.03;100794.50;5028471;28;20053;-73
2022/09/14 04:28:43;;;;;;;7.63;1.40;;;;;;;28.35;35.29;100785.53;5028563;28;20025;-72
2022/09/14 04:31:10;;;;;;;4.38;1.08;;;;;;;28.52;34.66;100775.97;5031346;28;20108;-73
2022/09/14 04:33:37;;;;;;;4.50;1.00;;;;;;;27.91;35.60;100775.72;5023652;28;20471;-73
2022/09/14 04:36:06;;;;;;;7.60;1.27;;;;;;;27.91;35.34;100772.19;5029292;28;20026;-72
2022/09/14 04:38:33;;;;;;;6.72;1.30;;;;;;;27.21;36.64;100769.81;5012210;28;20081;-72
2022/09/14 04:40:59;;;;;;;5.60;1.50;;;;;;;27.71;35.89;100765.78;5018143;28;20049;-73
2022/09/14 04:43:25;;;;;;;5.60;1.10;;;;;;;27.90;36.13;100765.97;5018502;28;20034;-72
2022/09/14 04:45:52;;;;;;;4.28;1.13;;;;;;;28.10;35.68;100776.88;5013986;28;20057;-73
2022/09/14 04:48:18;;;;;;;3.40;1.38;;;;;;;28.16;35.94;100773.66;5024057;28;20559;-72
2022/09/14 04:50:44;;;;;;;6.60;1.73;;;;;;;28.02;36.35;100776.69;5017222;28;20657;-72
2022/09/14 04:53:10;;;;;;;8.02;2.10;;;;;;;27.75;36.74;100781.53;5028004;28;20032;-72
2022/09/14 04:55:36;;;;;;;3.65;1.70;;;;;;;28.07;35.91;100783.34;5031888;28;20029;-72
2022/09/14 04:58:03;;;;;;;4.05;1.70;;;;;;;28.12;36.01;100774.91;5025432;28;20046;-72
2022/09/14 05:00:28;;;;;;;6.28;1.95;;;;;;;28.12;36.35;100772.22;5014030;28;20049;-72
2022/09/14 05:02:54;;;;;;;6.40;1.95;;;;;;;27.68;37.10;100766.06;5024121;28;20030;-72
2022/09/14 05:05:19;;;;;;;10.00;2.25;;;;;;;27.83;36.50;100764.75;5032244;28;20075;-72
2022/09/14 05:07:44;;;;;;;5.53;1.92;;;;;;;28.31;35.72;100762.59;5032482;28;20029;-73
2022/09/14 05:10:10;;;;;;;7.72;2.45;;;;;;;28.46;35.74;100761.25;5021245;28;20030;-73
2022/09/14 05:12:36;;;;;;;7.35;2.15;;;;;;;27.99;36.74;100760.81;5022344;28;20059;-73
2022/09/14 05:15:01;;;;;;;7.53;2.50;;;;;;;27.96;36.67;100758.34;5032922;28;20029;-72
2022/09/14 05:17:26;;;;;;;8.60;2.95;;;;;;;27.89;36.96;100753.53;5024179;28;20061;-72
2022/09/14 05:19:52;;;;;;;3.92;2.50;;;;;;;27.50;37.90;100753.19;5018198;28;20036;-73
2022/09/14 05:22:21;;;;;;;6.90;2.85;;;;;;;27.67;37.63;100753.59;5031912;28;20382;-73
2022/09/14 05:24:46;;;;;;;6.50;2.55;;;;;;;27.72;37.53;100762.13;5031166;28;20041;-73
2022/09/14 05:27:11;;;;;;;4.45;2.38;;;;;;;27.78;37.12;100767.00;5034313;28;20029;-74
2022/09/14 05:29:39;;;;;;;5.85;2.42;;;;;;;27.93;36.75;100765.69;5032289;28;20025;-73
2022/09/14 05:32:05;;;;;;;6.60;2.28;;;;;;;28.01;36.56;100767.75;5028381;28;20034;-74
2022/09/14 05:34:30;;;;;;;3.58;1.90;;;;;;;27.99;36.78;100771.53;5026022;28;20075;-73
2022/09/14 05:36:55;;;;;;;5.55;2.22;;;;;;;27.52;37.19;100766.47;5033183;28;20029;-73
2022/09/14 05:39:21;;;;;;;5.78;1.75;;;;;;;27.76;36.89;100763.59;5032054;28;20040;-73
2022/09/14 05:41:48;;;;;;;6.72;2.10;;;;;;;27.97;36.01;100776.19;5012538;28;20452;-73
2022/09/14 05:44:14;;;;;;;7.43;1.55;;;;;;;27.65;36.88;100769.00;5013747;28;20092;-73
2022/09/14 05:46:39;;;;;;;4.50;1.55;;;;;;;27.78;36.41;100777.75;5019223;28;20026;-73
2022/09/14 05:49:05;;;;;;;6.88;1.98;;;;;;;27.98;36.03;100777.88;5012561;28;20033;-73
2022/09/14 05:51:30;;;;;;;6.50;1.67;;;;;;;27.17;37.04;100776.41;5052165;28;20033;-73
2022/09/14 05:53:57;;;;;;;3.70;1.60;;;;;;;27.31;36.52;100769.06;5014231;28;20034;-73
2022/09/14 05:56:28;;;;;;;3.60;1.60;;;;;;;27.39;36.58;100766.66;5029100;28;20037;-73
2022/09/14 05:58:54;;;;;;;7.68;1.70;;;;;;;27.05;37.51;100764.88;5028437;28;20079;-74
2022/09/14 06:01:25;;;;;;;4.82;1.50;;;;;;;27.22;36.89;100768.84;5013507;28;20033;-73
2022/09/14 06:03:55;;;;;;;5.28;1.38;;;;;;;26.94;37.31;100772.06;5026385;28;20037;-73
2022/09/14 06:06:21;;;;;;;3.78;1.30;;;;;;;27.26;36.81;100767.63;5049172;28;20056;-74
2022/09/14 06:08:51;;;;;;;3.58;1.55;;;;;;;27.68;36.00;100766.06;5032327;28;20478;-73
2022/09/14 06:11:20;;;;;;;7.95;1.60;;;;;;;27.91;35.79;100762.28;5025508;28;20116;-73
2022/09/14 06:13:46;;;;;;;4.43;1.77;;;;;;;27.92;35.79;100769.38;5044163;28;20030;-73
2022/09/14 06:16:14;;;;;;;3.78;1.40;;;;;;;27.52;36.19;100761.09;5012084;28;20033;-73
2022/09/14 06:18:42;;;;;;;6.32;1.52;;;;;;;27.29;37.00;100766.53;5013520;28;20029;-74
2022/09/14 06:21:09;;;;;;;6.55;1.80;;;;;;;26.70;37.73;100770.38;5015144;28;20030;-73
2022/09/14 06:23:35;;;;;;;9.40;1.88;;;;;;;27.31;36.83;100763.72;5018720;28;20045;-74
2022/09/14 06:26:02;;;;;;;7.20;2.80;;;;;;;27.35;36.60;100768.69;5030213;28;20025;-74
2022/09/14 06:28:28;;;;;;;6.07;1.55;;;;;;;27.24;37.19;100769.59;5030986;28;20029;-74
2022/09/14 06:30:54;;;;;;;6.15;2.20;;;;;;;27.05;37.18;100770.22;5031799;28;20489;-73
2022/09/14 06:33:20;;;;;;;12.30;2.42;;;;;;;27.47;36.46;100748.06;5031346;28;20017;-73
2022/09/14 06:36:00;;;;;;;4.35;2.00;;;;;;;26.78;38.12;100741.13;5037722;28;20115;-73
2022/09/14 06:38:26;;;;;;;4.40;1.77;;;;;;;27.20;37.50;100735.06;5032439;28;20075;-74
2022/09/14 06:41:00;;;;;;;9.43;1.98;;;;;;;27.42;37.06;100739.56;5043699;28;20053;-73
2022/09/14 06:43:28;;;;;;;4.75;2.20;;;;;;;27.85;36.52;100741.34;5031377;28;20026;-74
2022/09/14 06:45:59;;;;;;;4.85;1.90;;;;;;;27.92;36.35;100742.50;5028248;28;20029;-73
2022/09/14 06:48:26;;;;;;;5.35;2.30;;;;;;;27.65;36.48;100739.47;5030696;28;20029;-74
2022/09/14 06:50:52;;;;;;;7.07;2.03;;;;;;;27.48;37.01;100733.69;5017208;28;20033;-73
2022/09/14 06:53:17;;;;;;;6.72;2.47;;;;;;;27.42;37.14;100728.81;5029083;28;20029;-73
2022/09/14 06:55:44;;;;;;;10.35;2.80;;;;;;;27.61;36.85;100730.81;5022000;28;20033;-73
2022/09/14 06:58:10;;;;;;;4.55;1.90;;;;;;;27.33;37.30;100735.78;5019184;28;20030;-74
2022/09/14 07:00:35;;;;;;;4.63;2.00;;;;;;;27.58;37.29;100739.97;5025181;28;20056;-73
2022/09/14 07:03:00;;;;;;;5.75;1.88;;;;;;;27.15;37.66;100742.63;5027503;28;20053;-73
2022/09/14 07:05:26;;;;;;;7.07;1.73;;;;;;;27.32;37.25;100727.84;5031404;28;20485;-73
2022/09/14 07:07:52;;;;;;;10.50;2.22;;;;;;;27.27;37.39;100736.25;5021564;28;20088;-74
2022/09/14 07:10:17;;;;;;;12.10;2.33;;;;;;;27.21;37.51;100734.94;5019254;28;20036;-73
2022/09/14 07:12:43;;;;;;;6.72;2.90;;;;;;;27.38;36.67;100732.72;5025056;28;20017;-73
2022/09/14 07:15:09;;;;;;;8.38;2.15;;;;;;;27.70;36.76;100742.63;5020418;28;20026;-73
2022/09/14 07:17:35;;;;;;;9.63;2.03;;;;;;;27.77;36.28;100741.13;5028181;28;20267;-74
2022/09/14 07:20:03;;;;;;;3.58;1.35;;;;;;;27.89;35.83;100734.72;5019316;28;20099;-73
2022/09/14 07:22:32;;;;;;;6.20;2.13;;;;;;;28.14;35.67;100726.41;5020421;28;20154;-73
2022/09/14 07:24:57;;;;;;;5.93;2.00;;;;;;;27.40;36.47;100730.78;5022250;28;20053;-73
2022/09/14 07:27:23;;;;;;;5.95;1.60;;;;;;;27.89;35.97;100732.03;5022849;28;20142;-73
2022/09/14 07:29:48;;;;;;;4.45;1.70;;;;;;;27.91;35.99;100735.44;5025978;28;20045;-73
2022/09/14 07:32:13;;;;;;;5.75;1.77;;;;;;;28.03;35.52;100733.56;5012725;28;20034;-74
2022/09/14 07:34:39;;;;;;;8.40;2.05;;;;;;;28.27;34.86;100730.63;5023590;28;20422;-73
2022/09/14 07:37:04;;;;;;;4.93;1.88;;;;;;;27.56;36.38;100731.22;5017973;28;20037;-74
2022/09/14 07:39:29;;;;;;;8.68;2.00;;;;;;;27.94;35.98;100728.94;5013190;28;20036;-74
2022/09/14 07:41:55;;;;;;;7.50;2.90;;;;;;;27.45;36.34;100728.59;5010628;28;20052;-73
2022/09/14 07:44:20;;;;;;;11.63;2.35;;;;;;;28.07;35.31;100734.16;5010779;28;20034;-73
2022/09/14 07:46:46;;;;;;;10.95;2.08;;;;;;;27.80;35.43;100738.19;5030459;28;20033;-73
2022/09/14 07:49:13;;;;;;;4.78;1.60;;;;;;;27.90;35.02;100739.13;5030514;28;20025;-74
2022/09/14 07:51:38;;;;;;;4.18;1.63;;;;;;;27.18;36.62;100737.03;5026853;28;20087;-73
2022/09/14 07:54:05;;;;;;;7.20;1.60;;;;;;;27.31;36.45;100742.25;5027287;28;20030;-73
2022/09/14 07:56:31;;;;;;;7.10;1.63;;;;;;;27.20;36.45;100740.44;5022920;28;20851;-74
2022/09/14 07:58:57;;;;;;;12.68;2.10;;;;;;;27.87;35.88;100739.34;5017586;28;20037;-74
2022/09/14 08:01:24;;;;;;;6.10;1.60;;;;;;;26.92;37.44;100738.16;5030415;28;20508;-74
2022/09/14 08:03:50;;;;;;;7.50;2.03;;;;;;;27.58;36.36;100737.28;5030346;28;20477;-73
2022/09/14 08:06:21;;;;;;;5.70;1.98;;;;;;;27.05;37.26;100742.53;5025315;28;20045;-74
2022/09/14 08:08:48;;;;;;;7.63;2.42;;;;;;;27.22;36.79;100733.13;5047496;28;20453;-73
2022/09/14 08:11:17;;;;;;;7.70;1.40;;;;;;;26.94;36.23;100729.16;5022057;28;20052;-73
2022/09/14 08:13:44;;;;;;;7.07;1.60;;;;;;;27.65;35.46;100734.09;5014382;28;20021;-74
2022/09/14 08:16:11;;;;;;;7.88;1.40;;;;;;;26.51;37.11;100734.25;5029003;28;20032;-73
2022/09/14 08:18:37;;;;;;;4.22;1.30;;;;;;;27.28;36.07;100723.72;5034375;28;20464;-73
2022/09/14 08:21:05;;;;;;;10.73;1.40;;;;;;;27.75;34.95;100729.66;5014647;28;20033;-73
2022/09/14 08:23:31;;;;;;;8.23;1.60;;;;;;;27.81;34.65;100723.78;5033265;28;20071;-73
2022/09/14 08:26:05;;;;;;;4.38;1.10;;;;;;;26.85;36.18;100728.91;5032211;28;20036;-73
2022/09/14 08:28:30;;;;;;;4.68;1.25;;;;;;;27.50;35.46;100720.97;5035164;28;20029;-74
2022/09/14 08:31:08;;;;;;;6.43;1.60;;;;;;;27.95;34.82;100713.69;5033041;28;20489;-73
2022/09/14 08:33:38;;;;;;;6.15;1.48;;;;;;;27.38;35.89;100719.31;5019988;28;20348;-73
2022/09/14 08:36:05;;;;;;;6.43;1.55;;;;;;;27.68;35.50;100723.94;5015534;28;20034;-73
2022/09/14 08:38:31;;;;;;;4.38;1.48;;;;;;;27.80;35.10;100710.47;5030493;28;20409;-73
2022/09/14 08:41:04;;;;;;;5.88;1.38;;;;;;;28.05;35.03;100720.84;5013250;28;20041;-73
2022/09/14 08:43:31;;;;;;;7.72;1.40;;;;;;;27.90;35.22;100723.00;5028461;28;20118;-73
2022/09/14 08:46:02;;;;;;;7.47;1.52;;;;;;;27.33;36.06;100718.84;5025987;28;20852;-73
2022/09/14 08:48:37;;;;;;;7.05;1.48;;;;;;;27.97;35.48;100728.66;5042840;28;20037;-73
2022/09/14 08:51:04;;;;;;;5.10;1.73;;;;;;;27.95;35.24;100719.91;5024794;28;20460;-74
2022/09/14 08:53:34;;;;;;;12.52;1.90;;;;;;;28.03;34.97;100721.97;5025383;28;20461;-74
2022/09/14 08:56:08;;;;;;;4.15;1.38;;;;;;;27.88;34.90;100714.22;5025572;28;20400;-74
2022/09/14 08:58:51;;;;;;;5.13;1.50;;;;;;;27.77;34.76;100723.16;5022979;28;20025;-73
2022/09/14 09:01:29;;;;;;;8.13;1.80;;;;;;;28.39;33.72;100717.09;5025574;28;20029;-73
2022/09/14 09:04:31;;;;;;;9.27;1.88;;;;;;;27.38;36.04;100714.81;5041013;28;20061;-73
2022/09/14 09:07:39;;;;;;;9.32;1.55;;;;;;;28.07;34.45;100716.22;5049541;28;20028;-73
2022/09/14 09:10:08;;;;;;;5.28;1.58;;;;;;;28.38;33.97;100729.66;5012928;28;20022;-73
2022/09/14 09:12:41;;;;;;;5.95;1.35;;;;;;;28.05;34.59;100720.00;5023176;28;20030;-73
2022/09/14 09:15:23;;;;;;;10.75;1.65;;;;;;;28.61;33.80;100722.25;5033308;28;20100;-73
2022/09/14 09:17:58;;;;;;;7.23;1.53;;;;;;;28.09;34.30;100732.19;5031699;28;20116;-73
2022/09/14 09:20:31;;;;;;;7.18;1.77;;;;;;;28.06;34.08;100732.47;5032722;28;20036;-74
2022/09/14 09:23:16;;;;;;;5.63;1.35;;;;;;;27.73;34.76;100726.25;5032436;28;20366;-73
2022/09/14 09:26:00;;;;;;;4.28;1.40;;;;;;;28.33;34.16;100718.47;5033281;28;20359;-73
2022/09/14 09:28:27;;;;;;;4.88;1.50;;;;;;;28.17;34.04;100718.94;5029142;28;20098;-73
2022/09/14 09:31:13;;;;;;;4.20;1.20;;;;;;;28.22;34.23;100715.84;5033010;28;20164;-73
2022/09/14 09:33:39;;;;;;;6.55;1.45;;;;;;;27.77;35.37;100716.97;5032686;28;20501;-75
2022/09/14 09:36:07;;;;;;;6.65;1.50;;;;;;;28.82;33.78;100713.31;5025990;28;20070;-73
2022/09/14 09:38:33;;;;;;;8.00;1.50;;;;;;;28.93;33.47;100710.53;5023910;28;20443;-73
2022/09/14 09:41:20;;;;;;;7.82;1.50;;;;;;;27.52;35.20;100718.16;5020639;28;20049;-73
2022/09/14 09:43:59;;;;;;;5.40;1.38;;;;;;;27.32;35.50;100717.13;5012684;28;20026;-73
2022/09/14 09:46:37;;;;;;;8.48;1.20;;;;;;;27.92;34.62;100718.34;5031141;28;20025;-73
2022/09/14 09:49:14;;;;;;;4.07;1.13;;;;;;;27.65;35.41;100712.63;5025304;28;20032;-73
2022/09/14 09:51:40;;;;;;;11.20;1.67;;;;;;;28.51;33.97;100716.00;5021836;28;20454;-73
2022/09/14 09:54:11;;;;;;;5.03;1.55;;;;;;;28.56;34.45;100716.47;5041007;28;20055;-74
2022/09/14 09:56:49;;;;;;;5.25;1.63;;;;;;;28.60;33.68;100712.50;5033978;28;20029;-73
2022/09/14 09:59:26;;;;;;;10.90;1.30;;;;;;;28.37;33.94;100713.66;5028432;28;20052;-73
2022/09/14 10:01:53;;;;;;;13.02;1.20;;;;;;;27.21;35.50;100707.28;5041707;28;20038;-74
2022/09/14 10:04:27;;;;;;;8.85;1.88;;;;;;;27.77;34.83;100707.06;5015047;28;20113;-73
2022/09/14 10:06:53;;;;;;;8.13;1.33;;;;;;;28.60;33.45;100699.06;5011631;28;20030;-73
2022/09/14 10:09:28;;;;;;;7.60;0.95;;;;;;;29.13;32.86;100710.56;5046034;28;20025;-73
2022/09/14 10:12:00;;;;;;;4.18;1.25;;;;;;;29.19;32.47;100699.22;5025633;28;20133;-74
2022/09/14 10:14:33;;;;;;;3.63;1.00;;;;;;;28.99;32.86;100708.25;5028102;28;20150;-74
2022/09/14 10:17:17;;;;;;;4.30;1.13;;;;;;;28.89;32.56;100709.09;5023501;28;20029;-73
2022/09/14 10:19:48;;;;;;;6.80;1.15;;;;;;;28.66;33.27;100712.97;5015976;28;20029;-73
2022/09/14 10:22:18;;;;;;;3.85;1.17;;;;;;;29.13;32.96;100710.56;5027073;28;20120;-73
2022/09/14 10:24:54;;;;;;;7.82;1.98;;;;;;;28.89;33.13;100714.47;5028707;28;20021;-73
2022/09/14 10:27:41;;;;;;;6.70;1.20;;;;;;;28.60;33.41;100704.44;5012604;28;20549;-74
2022/09/14 10:30:20;;;;;;;6.45;1.55;;;;;;;28.31;33.89;100709.69;5016551;28;20064;-73
2022/09/14 10:32:58;;;;;;;11.05;1.35;;;;;;;29.34;32.97;100702.38;5031187;28;20121;-73
2022/09/14 10:35:34;;;;;;;7.75;1.70;;;;;;;29.11;33.74;100709.81;5028911;28;20482;-73
2022/09/14 10:38:16;;;;;;;5.90;1.20;;;;;;;28.73;33.58;100706.06;5030669;28;20397;-73
2022/09/14 10:40:47;;;;;;;7.63;1.55;;;;;;;28.03;34.50;100713.94;5026237;28;20374;-73
2022/09/14 10:43:23;;;;;;;6.65;1.20;;;;;;;29.02;33.16;100702.63;5022466;28;20481;-73
2022/09/14 10:45:51;;;;;;;7.00;1.38;;;;;;;29.38;32.87;100705.66;5025586;28;20025;-73
2022/09/14 10:48:29;;;;;;;5.13;1.10;;;;;;;29.63;32.48;100700.69;5030573;28;20026;-73
2022/09/14 10:51:19;;;;;;;5.40;1.23;;;;;;;29.89;31.87;100701.81;5034212;28;20095;-74
2022/09/14 10:53:57;;;;;;;6.25;1.08;;;;;;;28.78;33.31;100706.50;5051754;28;20033;-74
2022/09/14 10:56:28;;;;;;;7.47;1.40;;;;;;;29.05;33.56;100705.84;5033499;28;20018;-73
2022/09/14 10:59:28;;;;;;;8.13;1.23;;;;;;;29.95;32.43;100703.94;5049623;28;20056;-74
2022/09/14 11:02:31;;;;;;;4.63;1.25;;;;;;;29.73;32.34;100701.50;5011772;28;20034;-74
2022/09/14 11:05:21;;;;;;;5.20;1.48;;;;;;;29.45;33.29;100704.09;5029735;28;20037;-73
2022/09/14 11:08:04;;;;;;;1.92;1.00;;;;;;;29.35;32.58;100703.25;5017932;28;20017;-74
2022/09/14 11:10:54;;;;;;;4.53;1.10;;;;;;;29.87;31.86;100693.03;5031057;28;20083;-74
2022/09/14 11:13:30;;;;;;;5.05;1.20;;;;;;;29.23;33.21;100706.00;5026403;28;20120;-74
2022/09/14 11:16:32;;;;;;;5.18;1.40;;;;;;;28.75;34.02;100696.84;5031372;28;20410;-74
2022/09/14 11:19:17;;;;;;;5.13;1.25;;;;;;;29.54;33.27;100700.53;5026862;28;20068;-74
2022/09/14 11:21:59;;;;;;;2.65;0.93;;;;;;;29.59;33.21;100698.28;5027350;28;20028;-74
2022/09/14 11:24:52;;;;;;;3.90;1.10;;;;;;;29.73;31.94;100696.13;5027173;28;20139;-74
2022/09/14 11:27:35;;;;;;;4.75;1.38;;;;;;;29.74;32.46;100698.66;5048198;28;20036;-74
2022/09/14 11:30:32;;;;;;;6.45;1.40;;;;;;;30.11;31.67;100694.38;5029872;28;20034;-73
2022/09/14 11:33:06;;;;;;;5.20;1.35;;;;;;;30.36;31.84;100697.41;5011884;28;20049;-73
2022/09/14 11:35:42;;;;;;;5.88;1.63;;;;;;;30.39;31.41;100697.13;5021308;28;20032;-74
2022/09/14 11:38:14;;;;;;;7.53;1.52;;;;;;;31.05;30.69;100697.97;5020105;28;20030;-73
2022/09/14 11:40:59;;;;;;;5.53;1.30;;;;;;;29.99;32.20;100692.84;5029202;28;20029;-73
2022/09/14 11:43:48;;;;;;;8.80;1.45;;;;;;;30.34;31.82;100689.47;5029725;28;20022;-74